Time;durP1;ratioP1;P1;durP2;ratioP2;P2;SDS_P1;SDS_P2;PMS_P1;PMS_P2;Temp;Humidity;BMP_temperature;BMP_pressure;BME280_temperature;BME280_humidity;BME280_pressure;Samples;Min_cycle;Max_cycle;Signal;HPM_P1;HPM_P2
2022/05/22 00:01:23;;;;;;;11.63;6.03;;;;;;;7.45;100.00;102094.13;5073802;28;20048;-78
2022/05/22 00:03:50;;;;;;;13.88;5.78;;;;;;;7.38;100.00;102095.41;5073610;28;20077;-78
2022/05/22 00:06:15;;;;;;;12.27;5.72;;;;;;;7.38;100.00;102092.78;5056271;28;20025;-78
2022/05/22 00:08:41;;;;;;;8.27;5.40;;;;;;;7.35;100.00;102079.72;5073657;28;20032;-77
2022/05/22 00:11:06;;;;;;;12.43;5.80;;;;;;;7.31;100.00;102076.38;5056083;28;20040;-78
2022/05/22 00:13:31;;;;;;;11.88;5.97;;;;;;;7.29;100.00;102080.06;5055868;28;20491;-78
2022/05/22 00:18:41;;;;;;;17.17;8.30;;;;;;;7.35;100.00;102079.72;5073668;28;20051;-78
2022/05/22 00:21:06;;;;;;;15.88;8.82;;;;;;;7.33;100.00;102079.78;5055112;28;20040;-78
2022/05/22 00:23:33;;;;;;;14.00;6.45;;;;;;;7.29;100.00;102080.06;5073384;28;20107;-78
2022/05/22 00:25:59;;;;;;;9.50;6.07;;;;;;;7.22;100.00;102069.78;5072596;28;20353;-78
2022/05/22 00:28:24;;;;;;;14.55;7.32;;;;;;;7.21;100.00;102072.53;5073248;28;20033;-78
2022/05/22 00:30:50;;;;;;;14.43;7.63;;;;;;;7.19;100.00;102085.00;5055542;28;20040;-78
2022/05/22 00:33:15;;;;;;;10.27;6.30;;;;;;;7.20;100.00;102079.63;5073093;28;20434;-78
2022/05/22 00:35:41;;;;;;;13.18;6.80;;;;;;;7.19;100.00;102085.00;5073003;28;20180;-77
2022/05/22 00:38:06;;;;;;;14.25;6.20;;;;;;;7.18;100.00;102088.59;5073008;28;20468;-78
2022/05/22 00:40:32;;;;;;;12.05;7.25;;;;;;;7.15;100.00;102089.63;5073352;28;20457;-77
2022/05/22 00:42:57;;;;;;;17.13;7.35;;;;;;;7.16;100.00;102078.09;5073540;28;20046;-77
2022/05/22 00:45:23;;;;;;;17.33;7.80;;;;;;;7.19;100.00;102077.06;5072755;28;20456;-78
2022/05/22 00:47:51;;;;;;;12.00;6.15;;;;;;;7.18;100.00;102065.63;5072786;28;20078;-77
2022/05/22 00:50:17;;;;;;;11.27;5.53;;;;;;;7.12;100.00;102063.34;5072748;28;20222;-77
2022/05/22 00:52:47;;;;;;;14.02;7.13;;;;;;;7.11;100.00;102056.34;5073345;28;20051;-78
2022/05/22 00:55:30;;;;;;;12.00;6.07;;;;;;;7.08;100.00;102053.88;5054947;28;20101;-78
2022/05/22 00:57:59;;;;;;;11.88;6.22;;;;;;;7.05;100.00;102048.75;5072821;28;20453;-78
2022/05/22 01:00:29;;;;;;;12.55;6.95;;;;;;;7.03;100.00;102062.06;5072164;28;20483;-78
2022/05/22 01:05:42;;;;;;;9.48;6.22;;;;;;;7.00;100.00;102064.00;5072306;28;20081;-78
2022/05/22 01:08:09;;;;;;;12.55;6.40;;;;;;;6.97;100.00;102069.47;5055091;28;20033;-78
2022/05/22 01:10:40;;;;;;;11.85;6.15;;;;;;;6.94;100.00;102074.94;5072059;28;20483;-78
2022/05/22 01:13:07;;;;;;;11.93;5.93;;;;;;;6.92;100.00;102080.31;5072394;28;20038;-78
2022/05/22 01:15:32;;;;;;;14.55;6.40;;;;;;;6.92;100.00;102079.47;5054706;28;20464;-78
2022/05/22 01:17:57;;;;;;;17.23;7.53;;;;;;;6.91;100.00;102080.41;5072355;28;20075;-78
2022/05/22 01:20:23;;;;;;;8.63;6.32;;;;;;;6.93;100.00;102074.09;5072890;28;20429;-79
2022/05/22 01:22:48;;;;;;;14.98;7.18;;;;;;;6.91;100.00;102057.44;5072354;28;20384;-77
2022/05/22 01:25:13;;;;;;;8.50;5.95;;;;;;;6.87;100.00;102047.97;5053974;28;20128;-78
2022/05/22 01:27:39;;;;;;;13.80;7.78;;;;;;;6.85;100.00;102055.13;5072043;28;20196;-78
2022/05/22 01:30:16;;;;;;;10.40;5.82;;;;;;;6.82;100.00;102050.00;5072582;28;20024;-77
2022/05/22 01:32:45;;;;;;;11.48;5.75;;;;;;;6.81;100.00;102043.03;5071956;28;20045;-78
2022/05/22 01:35:15;;;;;;;20.52;8.77;;;;;;;6.81;100.00;102041.22;5071958;28;20177;-78
2022/05/22 01:37:41;;;;;;;15.07;6.60;;;;;;;6.83;100.00;102035.84;5072092;28;20032;-78
2022/05/22 01:40:09;;;;;;;12.23;5.95;;;;;;;6.81;100.00;102027.16;5071780;28;20036;-78
2022/05/22 01:42:35;;;;;;;11.10;5.75;;;;;;;6.76;100.00;102024.75;5072140;28;20029;-78
2022/05/22 01:45:02;;;;;;;11.85;5.95;;;;;;;6.75;100.00;102022.19;5072796;28;20033;-78
2022/05/22 01:47:27;;;;;;;10.45;5.88;;;;;;;6.73;100.00;102014.34;5072225;28;20067;-78
2022/05/22 01:49:53;;;;;;;9.05;5.15;;;;;;;6.71;100.00;102017.06;5071839;28;20060;-78
2022/05/22 01:52:19;;;;;;;12.85;6.50;;;;;;;6.76;100.00;102018.63;5053491;28;20101;-78
2022/05/22 01:54:44;;;;;;;11.20;6.38;;;;;;;6.75;100.00;102016.91;5071897;28;20436;-78
2022/05/22 01:57:10;;;;;;;9.18;5.50;;;;;;;6.70;100.00;102014.50;5054198;28;20142;-78
2022/05/22 01:59:35;;;;;;;9.07;5.70;;;;;;;6.66;100.00;102013.00;5053721;28;20534;-78
2022/05/22 02:02:00;;;;;;;9.10;5.85;;;;;;;6.64;100.00;102014.84;5071994;28;20024;-78
2022/05/22 02:04:26;;;;;;;10.70;6.10;;;;;;;6.62;100.00;102011.44;5053660;28;20036;-78
2022/05/22 02:09:35;;;;;;;16.77;8.43;;;;;;;6.68;100.00;102001.38;5056599;28;20139;-79
2022/05/22 02:12:01;;;;;;;18.15;11.35;;;;;;;6.66;100.00;102005.06;5071314;28;20064;-77
2022/05/22 02:14:26;;;;;;;16.27;10.27;;;;;;;6.66;100.00;102003.25;5053988;28;20044;-78
2022/05/22 02:16:51;;;;;;;15.93;8.40;;;;;;;6.63;100.00;101999.94;5071808;28;20028;-78
2022/05/22 02:19:17;;;;;;;16.88;8.65;;;;;;;6.56;100.00;101991.47;5071911;28;20036;-78
2022/05/22 02:21:42;;;;;;;11.35;6.95;;;;;;;6.56;100.00;101988.00;5071177;28;20032;-78
2022/05/22 02:24:07;;;;;;;18.10;9.15;;;;;;;6.59;100.00;101991.31;5071802;28;20476;-79
2022/05/22 02:26:33;;;;;;;13.68;8.10;;;;;;;6.63;100.00;101984.91;5053223;28;20391;-79
2022/05/22 02:28:58;;;;;;;16.52;7.60;;;;;;;6.62;100.00;101983.22;5071619;28;20067;-78
2022/05/22 02:31:23;;;;;;;8.85;5.80;;;;;;;6.59;100.00;101991.31;5071738;28;20033;-77
2022/05/22 02:33:50;;;;;;;8.90;5.07;;;;;;;6.50;100.00;101982.09;5053029;28;20126;-78
2022/05/22 02:36:17;;;;;;;13.32;5.70;;;;;;;6.46;100.00;101983.19;5071329;28;20040;-77
2022/05/22 02:38:42;;;;;;;8.68;5.22;;;;;;;6.46;100.00;101974.41;5070790;28;20025;-78
2022/05/22 02:41:16;;;;;;;14.90;7.38;;;;;;;6.51;100.00;101977.69;5071318;28;20036;-77
2022/05/22 02:43:42;;;;;;;10.55;6.00;;;;;;;6.49;100.00;101980.41;5071738;28;20143;-77
2022/05/22 02:46:12;;;;;;;6.57;4.45;;;;;;;6.44;100.00;101976.31;5071417;28;20116;-77
2022/05/22 02:48:38;;;;;;;6.22;4.20;;;;;;;6.37;100.00;101977.56;5072359;28;20445;-78
2022/05/22 02:51:04;;;;;;;6.47;5.20;;;;;;;6.37;100.00;101978.41;5074952;28;20116;-77
2022/05/22 02:53:30;;;;;;;6.47;5.35;;;;;;;6.42;100.00;101989.59;5074509;28;20064;-78
2022/05/22 02:55:56;;;;;;;7.68;4.63;;;;;;;6.39;100.00;101979.19;5074420;28;20056;-77
2022/05/22 02:58:21;;;;;;;8.43;6.03;;;;;;;6.33;100.00;101985.66;5074539;28;20040;-77
2022/05/22 03:00:47;;;;;;;8.13;4.57;;;;;;;6.31;100.00;101979.59;5074878;28;20033;-78
2022/05/22 03:03:12;;;;;;;11.50;6.07;;;;;;;6.27;100.00;101972.78;5074603;28;20025;-78
2022/05/22 03:08:23;;;;;;;5.07;3.90;;;;;;;6.13;100.00;101973.50;5074650;28;20056;-77
2022/05/22 03:10:48;;;;;;;6.75;5.18;;;;;;;6.11;100.00;101964.81;5074784;28;20033;-78
2022/05/22 03:13:14;;;;;;;7.70;5.55;;;;;;;6.12;100.00;101968.31;5074897;28;20053;-77
2022/05/22 03:15:40;;;;;;;7.85;6.07;;;;;;;6.10;100.00;101971.03;5074455;28;20158;-78
2022/05/22 03:18:06;;;;;;;9.70;6.32;;;;;;;6.10;100.00;101964.91;5074162;28;20314;-77
2022/05/22 03:20:33;;;;;;;8.23;5.63;;;;;;;6.10;100.00;101962.28;5074490;28;20039;-77
2022/05/22 03:22:59;;;;;;;7.03;5.38;;;;;;;6.06;100.00;101958.06;5074381;28;20063;-77
2022/05/22 03:25:25;;;;;;;4.00;3.60;;;;;;;6.03;100.00;101956.47;5074521;28;20086;-76
2022/05/22 03:27:50;;;;;;;5.82;3.97;;;;;;;5.98;100.00;101953.22;5074287;28;20036;-77
2022/05/22 03:30:16;;;;;;;6.65;4.72;;;;;;;5.96;100.00;101945.34;5074135;28;20453;-76
2022/05/22 03:32:41;;;;;;;10.85;6.47;;;;;;;5.99;100.00;101947.84;5056019;28;20133;-76
2022/05/22 03:35:07;;;;;;;9.18;5.47;;;;;;;6.00;100.00;101952.19;5073948;28;20082;-76
2022/05/22 03:37:32;;;;;;;7.47;4.05;;;;;;;5.97;100.00;101951.50;5074071;28;20082;-78
2022/05/22 03:39:58;;;;;;;13.77;7.60;;;;;;;5.94;100.00;101947.22;5073864;28;20507;-77
2022/05/22 03:42:27;;;;;;;8.75;5.53;;;;;;;6.00;100.00;101948.69;5074704;28;20029;-76
2022/05/22 03:44:52;;;;;;;12.20;6.65;;;;;;;6.06;100.00;101939.59;5075324;28;20033;-77
2022/05/22 03:47:18;;;;;;;11.75;6.95;;;;;;;6.12;100.00;101939.25;5073970;28;20379;-77
2022/05/22 03:49:44;;;;;;;13.68;7.53;;;;;;;6.15;100.00;101934.66;5074315;28;20124;-77
2022/05/22 03:52:09;;;;;;;14.23;8.63;;;;;;;6.19;100.00;101932.69;5073740;28;20452;-77
2022/05/22 03:54:35;;;;;;;8.75;4.50;;;;;;;6.14;100.00;101932.09;5056302;28;20469;-77
2022/05/22 03:57:00;;;;;;;21.17;7.97;;;;;;;6.15;100.00;101931.16;5073948;28;20103;-77
2022/05/22 03:59:25;;;;;;;9.95;6.35;;;;;;;6.21;100.00;101927.31;5072782;28;20534;-77
2022/05/22 04:01:51;;;;;;;10.77;6.53;;;;;;;6.25;100.00;101924.44;5073637;28;20056;-76
2022/05/22 04:04:17;;;;;;;10.52;6.78;;;;;;;6.27;100.00;101925.22;5056040;28;20063;-77
2022/05/22 04:06:42;;;;;;;15.90;6.60;;;;;;;6.31;100.00;101921.44;5055673;28;20033;-79
2022/05/22 04:09:08;;;;;;;14.98;7.40;;;;;;;6.40;100.00;101920.09;5073724;28;20025;-77
2022/05/22 04:11:34;;;;;;;12.13;7.88;;;;;;;6.44;100.00;101921.63;5055519;28;20098;-77
2022/05/22 04:14:00;;;;;;;16.38;7.80;;;;;;;6.50;100.00;101923.91;5055621;28;20036;-77
2022/05/22 04:16:25;;;;;;;19.33;8.90;;;;;;;6.58;100.00;101922.63;5073574;28;20024;-77
2022/05/22 04:18:50;;;;;;;15.23;7.60;;;;;;;6.61;100.00;101925.09;5055869;28;20115;-78
2022/05/22 04:21:16;;;;;;;20.38;7.97;;;;;;;6.63;100.00;101928.53;5055572;28;20136;-77
2022/05/22 04:26:32;;;;;;;15.43;6.47;;;;;;;6.69;100.00;101923.75;5073182;28;20098;-77
2022/05/22 04:28:57;;;;;;;14.48;7.00;;;;;;;6.73;100.00;101912.97;5073431;28;20123;-77
2022/05/22 04:31:23;;;;;;;14.88;7.82;;;;;;;6.77;100.00;101925.09;5055479;28;20459;-77
2022/05/22 04:33:48;;;;;;;10.05;5.55;;;;;;;6.78;100.00;101922.38;5054887;28;20063;-78
2022/05/22 04:36:14;;;;;;;15.00;6.50;;;;;;;6.81;100.00;101918.69;5055179;28;20131;-77
2022/05/22 04:38:39;;;;;;;13.27;6.50;;;;;;;6.85;100.00;101918.44;5073290;28;20124;-77
2022/05/22 04:41:05;;;;;;;13.90;7.07;;;;;;;6.89;100.00;101922.59;5072887;28;20438;-77
2022/05/22 04:43:31;;;;;;;21.73;8.65;;;;;;;6.96;100.00;101915.16;5073311;28;20036;-77
2022/05/22 04:45:58;;;;;;;11.63;6.57;;;;;;;7.05;100.00;101922.56;5073184;28;20032;-77
2022/05/22 04:48:26;;;;;;;10.02;6.72;;;;;;;7.15;100.00;101922.00;5072629;28;20032;-78
2022/05/22 04:50:53;;;;;;;12.63;7.95;;;;;;;7.23;100.00;101910.03;5072892;28;20025;-77
2022/05/22 04:53:21;;;;;;;11.98;6.70;;;;;;;7.32;100.00;101913.94;5072613;28;20125;-77
2022/05/22 04:55:46;;;;;;;11.20;5.68;;;;;;;7.41;100.00;101918.66;5055377;28;20123;-75
2022/05/22 04:58:12;;;;;;;10.35;5.50;;;;;;;7.50;100.00;101914.63;5072941;28;20037;-76
2022/05/22 05:00:39;;;;;;;12.23;7.05;;;;;;;7.61;100.00;101913.13;5073033;28;20060;-76
2022/05/22 05:03:04;;;;;;;16.23;7.85;;;;;;;7.71;100.00;101914.25;5074251;28;20040;-77
2022/05/22 05:05:30;;;;;;;14.75;7.28;;;;;;;7.79;100.00;101914.63;5074818;28;20025;-77
2022/05/22 05:07:55;;;;;;;12.32;5.57;;;;;;;7.86;100.00;101918.59;5073677;28;20483;-77
2022/05/22 05:10:21;;;;;;;12.45;6.13;;;;;;;7.90;100.00;101917.47;5073792;28;20135;-77
2022/05/22 05:12:48;;;;;;;13.27;7.03;;;;;;;7.98;100.00;101916.16;5073797;28;20039;-77
2022/05/22 05:15:16;;;;;;;14.52;6.95;;;;;;;8.03;100.00;101911.41;5074111;28;20029;-77
2022/05/22 05:17:43;;;;;;;15.15;7.15;;;;;;;8.09;100.00;101922.47;5073512;28;20043;-78
2022/05/22 05:20:11;;;;;;;14.32;8.10;;;;;;;8.12;100.00;101924.94;5073856;28;20036;-78
2022/05/22 05:22:37;;;;;;;17.90;7.90;;;;;;;8.18;100.00;101918.41;5073809;28;20036;-77
2022/05/22 05:25:04;;;;;;;20.13;8.02;;;;;;;8.24;100.00;101925.97;5055814;28;20298;-77
2022/05/22 05:27:29;;;;;;;18.58;7.47;;;;;;;8.32;100.00;101928.13;5073359;28;20041;-77
2022/05/22 05:29:55;;;;;;;18.45;8.15;;;;;;;8.37;100.00;101931.31;5073524;28;20082;-77
2022/05/22 05:32:22;;;;;;;14.48;6.78;;;;;;;8.43;100.00;101928.31;5055084;28;20028;-77
2022/05/22 05:34:54;;;;;;;19.90;7.65;;;;;;;8.50;100.00;101930.59;5073520;28;20028;-78
2022/05/22 05:37:19;;;;;;;15.90;7.18;;;;;;;8.61;100.00;101925.41;5073356;28;20051;-75
2022/05/22 05:39:45;;;;;;;21.88;8.10;;;;;;;8.72;100.00;101927.38;5073445;28;20032;-78
2022/05/22 05:42:10;;;;;;;18.95;8.25;;;;;;;8.86;100.00;101926.47;5038560;28;20032;-78
2022/05/22 05:44:36;;;;;;;21.75;8.90;;;;;;;9.00;100.00;101927.28;5073470;28;20028;-78
2022/05/22 05:47:04;;;;;;;17.75;7.63;;;;;;;9.14;100.00;101930.81;5073506;28;20380;-78
2022/05/22 05:49:30;;;;;;;18.52;8.00;;;;;;;9.31;100.00;101930.50;5073203;28;20027;-78
2022/05/22 05:51:55;;;;;;;20.63;8.27;;;;;;;9.48;100.00;101928.50;5072867;28;20116;-85
2022/05/22 05:54:20;;;;;;;22.60;8.68;;;;;;;9.67;100.00;101933.41;5072341;28;20056;-77
2022/05/22 05:56:46;;;;;;;17.63;7.75;;;;;;;9.85;100.00;101924.16;5053834;28;20337;-77
2022/05/22 05:59:11;;;;;;;22.35;8.02;;;;;;;10.05;100.00;101924.56;5071650;28;20036;-78
2022/05/22 06:01:37;;;;;;;17.95;6.68;;;;;;;10.29;100.00;101919.28;5054065;28;20043;-78
2022/05/22 06:04:03;;;;;;;18.33;6.82;;;;;;;10.54;100.00;101912.22;5053752;28;20044;-78
2022/05/22 06:06:29;;;;;;;16.35;6.32;;;;;;;10.81;100.00;101911.09;5071968;28;20032;-77
2022/05/22 06:08:55;;;;;;;19.35;6.30;;;;;;;11.01;100.00;101910.47;5072049;28;20475;-77
2022/05/22 06:11:21;;;;;;;14.60;6.18;;;;;;;11.20;100.00;101914.41;5071470;28;20044;-77
2022/05/22 06:13:47;;;;;;;19.33;5.07;;;;;;;11.37;100.00;101910.44;5072107;28;20082;-77
2022/05/22 06:16:13;;;;;;;14.38;4.35;;;;;;;11.54;100.00;101911.81;5072231;28;20086;-77
2022/05/22 06:18:38;;;;;;;13.60;4.97;;;;;;;11.77;100.00;101913.53;5071542;28;20040;-76
2022/05/22 06:21:11;;;;;;;13.18;3.97;;;;;;;11.99;100.00;101915.38;5071501;28;20048;-77
2022/05/22 06:23:38;;;;;;;15.30;4.40;;;;;;;12.22;100.00;101920.69;5073683;28;20461;-76
2022/05/22 06:26:07;;;;;;;9.73;3.72;;;;;;;12.40;100.00;101920.19;5058504;28;20049;-76
2022/05/22 06:28:33;;;;;;;17.52;3.55;;;;;;;12.59;96.21;101914.19;5076462;28;20024;-79
2022/05/22 06:30:58;;;;;;;9.77;3.65;;;;;;;12.78;93.96;101914.38;5076089;28;20055;-75
2022/05/22 06:33:24;;;;;;;9.60;3.10;;;;;;;13.04;92.09;101916.69;5058283;28;20048;-77
2022/05/22 06:35:49;;;;;;;12.32;3.53;;;;;;;13.28;87.50;101920.94;5076750;28;20036;-77
2022/05/22 06:41:06;;;;;;;8.77;2.92;;;;;;;13.80;85.05;101921.81;5061108;28;20063;-81
2022/05/22 06:43:32;;;;;;;8.55;2.78;;;;;;;14.00;81.47;101922.75;5076953;28;20060;-76
2022/05/22 06:45:57;;;;;;;11.75;2.47;;;;;;;14.23;82.04;101922.53;5058739;28;20104;-77
2022/05/22 06:48:23;;;;;;;11.13;3.28;;;;;;;14.46;82.75;101928.50;5076192;28;20032;-77
2022/05/22 06:50:48;;;;;;;18.52;4.90;;;;;;;14.60;77.18;101927.25;5076571;28;20071;-75
2022/05/22 06:53:14;;;;;;;12.27;3.22;;;;;;;14.76;78.23;101924.91;5076237;28;20437;-76
2022/05/22 06:55:42;;;;;;;8.95;2.80;;;;;;;14.88;74.97;101928.28;5075905;28;20060;-76
2022/05/22 06:58:08;;;;;;;10.35;2.92;;;;;;;14.97;74.25;101930.13;5041312;28;20108;-76
2022/05/22 07:00:34;;;;;;;11.30;2.90;;;;;;;15.05;75.05;101928.56;5057958;28;20090;-76
2022/05/22 07:02:59;;;;;;;10.60;2.85;;;;;;;15.14;74.35;101928.56;5058281;28;20033;-78
2022/05/22 07:05:26;;;;;;;12.93;3.95;;;;;;;15.22;74.16;101927.84;5075515;28;20173;-75
2022/05/22 07:07:53;;;;;;;6.63;2.50;;;;;;;15.31;72.91;101920.78;5075933;28;20064;-75
2022/05/22 07:10:19;;;;;;;8.93;2.70;;;;;;;15.45;71.32;101914.09;5057949;28;20056;-76
2022/05/22 07:12:44;;;;;;;6.57;2.60;;;;;;;15.56;71.39;101915.78;5076019;28;20032;-76
2022/05/22 07:15:11;;;;;;;12.98;3.40;;;;;;;15.72;71.29;101910.66;5075991;28;20043;-77
2022/05/22 07:17:39;;;;;;;10.68;3.40;;;;;;;15.76;68.99;101912.03;5057472;28;20058;-76
2022/05/22 07:20:06;;;;;;;9.07;3.00;;;;;;;15.89;69.29;101919.78;5075423;28;20541;-75
2022/05/22 07:22:31;;;;;;;9.85;2.95;;;;;;;16.03;69.24;101913.06;5057512;28;20449;-75
2022/05/22 07:24:56;;;;;;;11.95;3.03;;;;;;;16.12;67.05;101914.91;5057331;28;20032;-75
2022/05/22 07:27:22;;;;;;;9.27;2.75;;;;;;;16.19;66.04;101915.13;5075368;28;20483;-76
2022/05/22 07:29:47;;;;;;;8.68;2.50;;;;;;;16.27;64.79;101911.69;5075287;28;20061;-76
2022/05/22 07:32:13;;;;;;;8.65;2.78;;;;;;;16.32;64.35;101907.56;5057101;28;20102;-77
2022/05/22 07:34:40;;;;;;;10.23;2.67;;;;;;;16.44;64.12;101904.66;5057629;28;20037;-76
2022/05/22 07:37:08;;;;;;;7.07;2.08;;;;;;;16.54;63.56;101908.09;5074949;28;20062;-76
2022/05/22 07:39:33;;;;;;;9.73;3.00;;;;;;;16.71;63.33;101912.66;5074930;28;20025;-76
2022/05/22 07:41:59;;;;;;;9.30;2.60;;;;;;;16.87;62.06;101908.47;5075155;28;20020;-76
2022/05/22 07:44:25;;;;;;;9.75;2.35;;;;;;;17.03;62.83;101902.38;5040805;28;20025;-76
2022/05/22 07:46:51;;;;;;;9.93;2.10;;;;;;;17.24;58.84;101899.34;5075190;28;20036;-83
2022/05/22 07:52:07;;;;;;;9.35;2.50;;;;;;;17.47;59.32;101896.97;5075067;28;20082;-81
2022/05/22 07:54:38;;;;;;;8.27;2.40;;;;;;;17.57;58.17;101897.72;5075281;28;20055;-81
2022/05/22 07:57:04;;;;;;;;;;;;;;;17.65;56.50;101886.16;5057506;28;20075;-81
2022/05/22 07:59:34;;;;;;;12.43;2.97;;;;;;;17.85;57.20;101884.03;5075128;28;19963;-81
2022/05/22 08:02:00;;;;;;;10.48;2.25;;;;;;;18.06;56.91;101880.13;5075474;28;20033;-82
2022/05/22 08:04:25;;;;;;;5.63;2.17;;;;;;;18.11;54.72;101878.63;5074857;28;20105;-81
2022/05/22 08:06:50;;;;;;;5.00;1.58;;;;;;;18.12;50.87;101868.69;5074668;28;20166;-82
2022/05/22 08:09:16;;;;;;;9.18;2.70;;;;;;;18.23;54.19;101873.78;5040085;28;20119;-82
2022/05/22 08:11:42;;;;;;;8.00;2.53;;;;;;;18.40;53.38;101873.81;5074447;28;20108;-82
2022/05/22 08:14:07;;;;;;;11.95;2.40;;;;;;;18.52;53.09;101855.47;5075011;28;20037;-81
2022/05/22 08:16:32;;;;;;;8.75;2.30;;;;;;;18.68;52.52;101860.88;5074888;28;20037;-81
2022/05/22 08:18:58;;;;;;;9.20;2.33;;;;;;;19.00;54.30;101856.50;5074943;28;20029;-84
2022/05/22 08:21:23;;;;;;;9.40;2.15;;;;;;;18.72;49.98;101855.97;5074688;28;20480;-79
2022/05/22 08:23:49;;;;;;;8.75;1.92;;;;;;;19.11;52.72;101858.00;5074279;28;20086;-81
2022/05/22 08:26:14;;;;;;;10.50;2.28;;;;;;;19.41;48.85;101847.50;5074811;28;20093;-81
2022/05/22 08:28:40;;;;;;;8.27;2.47;;;;;;;19.68;51.21;101848.94;5056446;28;20510;-84
2022/05/22 08:31:06;;;;;;;8.32;2.67;;;;;;;19.93;48.90;101846.13;5056380;28;20068;-82
2022/05/22 08:33:31;;;;;;;8.10;2.83;;;;;;;20.27;49.61;101837.66;5056226;28;20476;-80
2022/05/22 08:35:57;;;;;;;8.65;2.50;;;;;;;20.66;48.14;101839.47;5039615;28;20035;-79
2022/05/22 08:38:22;;;;;;;6.15;2.40;;;;;;;21.08;46.70;101837.22;5056059;28;20033;-79
2022/05/22 08:41:01;;;;;;;8.80;2.20;;;;;;;21.57;44.53;101842.13;5073758;28;20413;-74
2022/05/22 08:43:43;;;;;;;7.45;2.33;;;;;;;22.15;43.55;101844.03;5056551;28;20174;-75
2022/05/22 08:46:32;;;;;;;8.52;2.83;;;;;;;22.69;41.92;101821.88;5055410;28;20029;-75
2022/05/22 08:49:01;;;;;;;8.52;2.08;;;;;;;22.94;38.71;101826.84;5074114;28;20028;-75
2022/05/22 08:51:38;;;;;;;5.00;1.60;;;;;;;23.10;37.40;101825.75;5073852;28;20089;-75
2022/05/22 08:54:20;;;;;;;7.38;2.08;;;;;;;23.51;39.55;101824.97;5073757;28;20029;-76
2022/05/22 08:59:39;;;;;;;11.82;2.60;;;;;;;23.56;36.42;101822.47;5074010;28;20113;-75
2022/05/22 09:02:41;;;;;;;11.32;2.78;;;;;;;23.22;36.86;101823.31;5073197;28;20482;-75
2022/05/22 09:05:18;;;;;;;9.55;2.40;;;;;;;24.03;35.74;101810.97;5073580;28;20046;-76
2022/05/22 09:08:06;;;;;;;6.95;2.25;;;;;;;24.78;35.70;101806.25;5073187;28;20392;-75
2022/05/22 09:10:46;;;;;;;8.60;2.05;;;;;;;25.16;35.05;101805.56;5073267;28;20029;-75
2022/05/22 09:13:27;;;;;;;6.00;2.10;;;;;;;25.61;32.01;101803.97;5073752;28;20048;-75
2022/05/22 09:16:11;;;;;;;6.57;2.30;;;;;;;26.07;30.80;101800.19;5075297;28;20032;-76
2022/05/22 09:19:02;;;;;;;8.23;2.38;;;;;;;26.34;31.74;101795.38;5056457;28;20020;-76
2022/05/22 09:21:32;;;;;;;8.98;2.40;;;;;;;26.54;30.26;101792.53;5045892;28;20139;-76
2022/05/22 09:24:03;;;;;;;7.35;2.25;;;;;;;26.71;31.83;101790.09;5072918;28;20032;-77
2022/05/22 09:27:07;;;;;;;7.15;2.10;;;;;;;27.42;31.62;101781.56;5055627;28;20082;-76
2022/05/22 09:29:41;;;;;;;5.25;1.75;;;;;;;27.75;29.37;101774.84;5072757;28;20029;-76
2022/05/22 09:32:18;;;;;;;6.75;1.80;;;;;;;27.43;28.88;101775.88;5073003;28;20047;-76
2022/05/22 09:35:12;;;;;;;5.47;2.00;;;;;;;27.67;28.22;101781.47;5072960;28;20060;-76
2022/05/22 09:37:55;;;;;;;8.68;2.30;;;;;;;27.73;29.33;101775.06;5073437;28;20021;-76
2022/05/22 09:40:47;;;;;;;6.55;2.45;;;;;;;27.70;27.95;101767.34;5073099;28;20082;-78
2022/05/22 09:43:34;;;;;;;6.75;2.58;;;;;;;28.13;29.19;101769.03;5073017;28;20028;-77
2022/05/22 09:46:20;;;;;;;8.65;2.72;;;;;;;28.27;27.71;101760.63;5072754;28;20463;-77
2022/05/22 09:48:52;;;;;;;12.32;2.78;;;;;;;27.89;28.95;101765.38;5072943;28;20127;-77
2022/05/22 09:51:47;;;;;;;8.02;2.97;;;;;;;27.95;29.72;101772.66;5072583;28;20392;-76
2022/05/22 09:54:31;;;;;;;10.48;2.78;;;;;;;28.62;27.43;101768.91;5054722;28;20032;-75
2022/05/22 09:57:14;;;;;;;10.25;2.47;;;;;;;28.98;27.43;101760.69;5072610;28;20480;-75
2022/05/22 10:00:06;;;;;;;5.50;2.25;;;;;;;28.60;26.65;101762.81;5072658;28;20472;-77
2022/05/22 10:03:03;;;;;;;6.20;2.83;;;;;;;28.12;30.15;101756.44;5072857;28;20032;-76
2022/05/22 10:05:42;;;;;;;6.88;2.53;;;;;;;27.80;28.86;101762.16;5039749;28;20040;-76
2022/05/22 10:08:51;;;;;;;7.70;2.38;;;;;;;28.39;28.71;101757.91;5072926;28;20028;-76
2022/05/22 10:11:25;;;;;;;6.90;2.20;;;;;;;28.02;29.55;101755.34;4990713;28;20161;-75
2022/05/22 10:13:50;;;;;;;6.78;2.33;;;;;;;28.69;27.57;101757.81;5059436;28;20124;-78
2022/05/22 10:16:28;;;;;;;10.10;2.70;;;;;;;28.94;27.63;101743.88;5072216;28;20536;-75
2022/05/22 10:19:10;;;;;;;9.13;2.80;;;;;;;28.66;26.31;101745.47;5072690;28;20024;-75
2022/05/22 10:21:49;;;;;;;4.35;2.30;;;;;;;28.65;27.42;101737.50;5072743;28;20051;-76
2022/05/22 10:24:18;;;;;;;8.05;2.55;;;;;;;29.28;26.78;101741.34;5072647;28;20029;-76
2022/05/22 10:27:16;;;;;;;6.22;2.10;;;;;;;29.73;26.22;101742.47;5072282;28;20123;-76
2022/05/22 10:30:08;;;;;;;7.28;2.75;;;;;;;29.99;24.97;101731.97;5072704;28;20158;-75
2022/05/22 10:32:46;;;;;;;7.57;2.58;;;;;;;29.40;26.20;101732.25;5071742;28;20048;-78
2022/05/22 10:35:38;;;;;;;8.43;2.45;;;;;;;29.51;26.40;101721.25;5072742;28;20166;-75
2022/05/22 10:38:11;;;;;;;8.07;3.08;;;;;;;29.32;27.60;101726.06;5054127;28;20060;-76
2022/05/22 10:43:33;;;;;;;9.52;2.65;;;;;;;29.88;25.90;101709.84;5072736;28;20131;-83
2022/05/22 10:45:58;;;;;;;9.50;2.75;;;;;;;29.74;25.75;101711.22;5071933;28;20032;-79
2022/05/22 10:48:24;;;;;;;8.40;2.35;;;;;;;29.31;26.62;101701.66;5054377;28;20411;-81
2022/05/22 10:51:02;;;;;;;10.13;2.92;;;;;;;28.63;26.49;101701.28;5072313;28;20031;-80
2022/05/22 10:53:39;;;;;;;10.18;2.88;;;;;;;28.53;26.50;101701.88;5072675;28;20035;-80
2022/05/22 10:56:13;;;;;;;4.45;2.03;;;;;;;29.91;26.04;101692.06;5054011;28;20111;-81
2022/05/22 10:58:56;;;;;;;5.82;2.15;;;;;;;30.40;25.17;101688.72;5071854;28;20055;-81
2022/05/22 11:01:25;;;;;;;6.65;2.53;;;;;;;29.77;25.41;101685.22;5072692;28;20028;-83
2022/05/22 11:04:20;;;;;;;5.25;1.88;;;;;;;29.42;25.20;101681.56;5071870;28;20142;-78
2022/05/22 11:06:55;;;;;;;8.15;2.15;;;;;;;30.55;23.58;101679.91;5054488;28;20044;-77
2022/05/22 11:09:29;;;;;;;5.05;2.05;;;;;;;30.58;22.78;101684.91;5072975;28;20032;-77
2022/05/22 11:12:10;;;;;;;6.45;2.20;;;;;;;29.62;23.58;101683.88;5057867;28;20064;-80
2022/05/22 11:14:37;;;;;;;6.80;2.25;;;;;;;29.66;24.55;101678.72;5075992;28;20034;-81
2022/05/22 11:17:16;;;;;;;9.10;2.75;;;;;;;29.86;24.05;101681.84;5076241;28;20077;-83
2022/05/22 11:19:43;;;;;;;7.75;2.40;;;;;;;30.04;24.38;101674.47;5076200;28;20032;-83
2022/05/22 11:22:33;;;;;;;9.30;2.72;;;;;;;29.68;24.92;101679.31;5076154;28;20033;-84
2022/05/22 11:25:27;;;;;;;8.00;2.67;;;;;;;29.94;25.07;101672.38;5076009;28;20106;-85
2022/05/22 11:28:20;;;;;;;6.30;2.70;;;;;;;30.55;24.67;101666.19;5076018;28;20040;-84
2022/05/22 11:30:52;;;;;;;8.60;2.80;;;;;;;29.46;24.08;101665.50;5075742;28;20441;-84
2022/05/22 11:33:39;;;;;;;7.30;2.80;;;;;;;30.56;24.63;101654.94;5054607;28;20507;-85
2022/05/22 11:36:07;;;;;;;7.63;2.70;;;;;;;30.41;23.69;101647.34;5055537;28;20025;-83
2022/05/22 11:39:00;;;;;;;8.38;2.70;;;;;;;30.05;24.89;101645.94;5055513;28;20033;-84
2022/05/22 11:41:35;;;;;;;8.35;3.00;;;;;;;30.68;24.09;101640.25;5055728;28;20036;-83
2022/05/22 11:44:19;;;;;;;7.88;2.53;;;;;;;31.19;24.39;101643.63;5055538;28;20134;-83
2022/05/22 11:47:10;;;;;;;5.70;2.55;;;;;;;29.28;23.79;101634.47;5055420;28;20500;-83
2022/05/22 11:49:47;;;;;;;5.93;2.35;;;;;;;28.89;25.72;101636.13;5054650;28;20103;-78
2022/05/22 11:52:55;;;;;;;5.93;2.45;;;;;;;27.45;29.39;101628.09;5055152;28;20092;-78
2022/05/22 11:55:29;;;;;;;7.00;2.88;;;;;;;28.37;28.96;101620.50;5055046;28;20033;-78
2022/05/22 11:58:07;;;;;;;8.70;2.53;;;;;;;28.10;26.83;101619.09;5055026;28;20063;-77
2022/05/22 12:00:47;;;;;;;8.13;2.60;;;;;;;27.23;29.46;101606.75;5055326;28;20033;-78